Forside
METAR-TAF:

METAR-TAF

Lufthavne :

Göteborg-Landvetter Airport

Göteborg-Landvetter, Sverige

Breddekreds: 57-40N, længdekreds: 012-18E, højde: 169 m

Aktuelle vejr

Denne rapport blev lavet for 10 minutter siden, kl. 02:50 UTC
Vind 6 kt fra nordnordøst
Temperatur 8°C
Fugtighed 100%
Tryk 1019 hPa
Sigt: 6000 m
Nogle få skyer i en højde af 400 ft
Spredte skyer i en højde af 600 ft
Overskyet i en højde af 2900 ft
dis

METAR: ESGG 250250Z 03006KT 6000 BR FEW004 SCT006 OVC029 08/08 Q1019

Tid: 05:00 (03:00 UTC)

Vejrudsigter

Denne rapport blev lavet for 10 minutter siden, kl. 02:50 UTC
Foreløbig gælder fra 25 på 02 UTC til 25 på 24 UTC
Vind 2 kt fra varierende retninger
Sigt: 6000 m
Nogle få skyer i en højde af 600 ft
Brudte skyer i en højde af 3000 ft
Sandsynlighed 40%
fra 25 på 02 UTC til 25 på 06 UTC
Brudte skyer i en højde af 600 ft

TAF: ESGG 250250Z 2502/2524 VRB02KT 6000 FEW006 BKN030 PROB40 2502/2506 BKN006

Vejrobservationer og prognoser fra mere end 4000 lufthavne (METAR og TAF).

De gule og røde prikker repræsenterer de meteorologiske stationer.

Flyt musen over at se navnet på stationen.

Så klik over at se vejr observationer og prognoser.

At skifte det kort: Klik på de grønne knapper med et sort kors for at zoome ind; på den grønne knap med en bindestreg for at zoome ud; eller på de grønne pile for tilstødende kort.


METAR-TAF: